createdAt,value
2023-03-25T00:00:24.747Z,98870.39
2023-03-25T00:03:17.915Z,98866.35
2023-03-25T00:05:50.670Z,98866.32
2023-03-25T00:08:24.107Z,98875.11
2023-03-25T00:11:00.306Z,98881.46
2023-03-25T00:13:32.957Z,98875.50
2023-03-25T00:16:07.253Z,98875.40
2023-03-25T00:18:40.167Z,98878.81
2023-03-25T00:21:12.525Z,98880.88
2023-03-25T00:23:45.138Z,98874.29
2023-03-25T00:26:17.952Z,98873.39
2023-03-25T00:28:50.395Z,98872.70
2023-03-25T00:31:22.997Z,98872.96
2023-03-25T00:33:58.143Z,98874.45
2023-03-25T00:36:30.623Z,98873.81
2023-03-25T00:39:04.416Z,98871.05
2023-03-25T00:41:37.265Z,98878.48
2023-03-25T00:44:12.369Z,98877.48
2023-03-25T00:46:44.636Z,98877.05
2023-03-25T00:49:16.992Z,98875.20
2023-03-25T00:51:53.036Z,98875.42
2023-03-25T00:54:26.777Z,98873.44
2023-03-25T00:57:00.038Z,98875.27
2023-03-25T00:59:32.473Z,98879.95
2023-03-25T01:02:07.138Z,98876.73
2023-03-25T01:04:43.071Z,98875.33
2023-03-25T01:07:16.086Z,98874.00
2023-03-25T01:09:49.513Z,98873.91
2023-03-25T01:12:21.777Z,98875.65
2023-03-25T01:14:54.363Z,98872.80
2023-03-25T01:17:26.671Z,98873.75
2023-03-25T01:19:59.230Z,98871.65
2023-03-25T01:22:31.642Z,98870.11
2023-03-25T01:25:04.090Z,98864.61
2023-03-25T01:27:36.533Z,98859.15
2023-03-25T01:30:13.554Z,98858.81
2023-03-25T01:32:46.111Z,98856.77
2023-03-25T01:35:18.313Z,98855.92
2023-03-25T01:37:50.965Z,98861.56
2023-03-25T01:40:25.051Z,98857.20
2023-03-25T01:42:57.321Z,98854.16
2023-03-25T01:45:32.849Z,98851.54
2023-03-25T01:48:13.248Z,98846.78
2023-03-25T01:50:49.102Z,98846.13
2023-03-25T01:53:21.670Z,98843.22
2023-03-25T01:55:54.980Z,98844.71
2023-03-25T01:58:30.934Z,98846.21
2023-03-25T02:01:03.726Z,98845.31
2023-03-25T02:03:37.424Z,98844.68
2023-03-25T02:06:16.994Z,98847.96
2023-03-25T02:08:49.786Z,98849.36
2023-03-25T02:11:22.146Z,98848.02
2023-03-25T02:13:54.752Z,98845.67
2023-03-25T02:16:34.668Z,98845.05
2023-03-25T02:19:42.280Z,98844.31
2023-03-25T02:22:47.755Z,98837.15
2023-03-25T02:25:35.529Z,98834.91
2023-03-25T02:28:14.868Z,98829.21
2023-03-25T02:31:14.067Z,98830.86
2023-03-25T02:34:22.495Z,98834.72
2023-03-25T02:37:47.063Z,98834.04
2023-03-25T02:40:23.923Z,98839.80
2023-03-25T02:43:01.479Z,98840.13
2023-03-25T02:45:39.641Z,98836.28
2023-03-25T02:48:19.231Z,98841.17
2023-03-25T02:50:56.408Z,98837.52
2023-03-25T02:53:33.954Z,98838.18
2023-03-25T02:56:11.029Z,98841.91
2023-03-25T02:58:46.246Z,98841.65
2023-03-25T03:01:18.738Z,98843.01
2023-03-25T03:03:51.822Z,98843.09
2023-03-25T03:06:25.599Z,98844.45
2023-03-25T03:09:12.457Z,98840.10
2023-03-25T03:11:56.709Z,98845.04
2023-03-25T03:14:43.880Z,98844.12
2023-03-25T03:17:25.618Z,98840.86
2023-03-25T03:20:02.208Z,98850.74
2023-03-25T03:22:43.568Z,98847.06
2023-03-25T03:25:28.900Z,98841.14
2023-03-25T03:28:07.249Z,98845.40
2023-03-25T03:30:46.725Z,98848.27
2023-03-25T03:33:26.109Z,98849.59
2023-03-25T03:36:03.242Z,98844.63
2023-03-25T03:38:42.535Z,98841.73
2023-03-25T03:41:19.784Z,98840.86
2023-03-25T03:43:57.289Z,98837.34
2023-03-25T03:46:34.401Z,98835.77
2023-03-25T03:49:10.719Z,98848.72
2023-03-25T03:51:48.006Z,98847.48
2023-03-25T03:54:23.828Z,98832.13
2023-03-25T03:57:01.978Z,98832.23
2023-03-25T03:59:43.482Z,98825.31
2023-03-25T04:02:24.429Z,98823.12
2023-03-25T04:05:00.883Z,98827.54
2023-03-25T04:07:41.739Z,98826.55
2023-03-25T04:10:19.777Z,98831.14
2023-03-25T04:12:56.509Z,98825.02
2023-03-25T04:15:28.970Z,98825.10
2023-03-25T04:18:01.898Z,98820.21
2023-03-25T04:20:36.586Z,98818.23
2023-03-25T04:23:09.964Z,98821.42
2023-03-25T04:25:42.525Z,98826.59
2023-03-25T04:28:17.839Z,98832.55
2023-03-25T04:30:55.937Z,98835.20
2023-03-25T04:33:30.128Z,98830.77
2023-03-25T04:36:03.753Z,98838.94
2023-03-25T04:38:37.850Z,98837.39
2023-03-25T04:41:13.787Z,98837.10
2023-03-25T04:43:46.299Z,98843.93
2023-03-25T04:46:20.066Z,98850.64
2023-03-25T04:48:54.074Z,98857.52
2023-03-25T04:51:27.114Z,98863.21
2023-03-25T04:53:59.568Z,98865.98
2023-03-25T04:56:31.908Z,98869.89
2023-03-25T04:59:04.408Z,98867.32
2023-03-25T05:01:42.300Z,98869.34
2023-03-25T05:04:17.764Z,98868.58
2023-03-25T05:06:51.837Z,98870.71
2023-03-25T05:09:24.389Z,98866.41
2023-03-25T05:11:57.082Z,98867.92
2023-03-25T05:14:29.531Z,98869.66
2023-03-25T05:17:01.847Z,98865.56
2023-03-25T05:19:35.314Z,98863.13
2023-03-25T05:22:07.851Z,98867.05
2023-03-25T05:24:45.248Z,98870.44
2023-03-25T05:27:20.218Z,98874.22
2023-03-25T05:29:54.116Z,98873.17
2023-03-25T05:32:30.215Z,98872.33
2023-03-25T05:35:03.174Z,98872.16
2023-03-25T05:37:35.507Z,98879.95
2023-03-25T05:40:15.141Z,98872.05
2023-03-25T05:42:49.202Z,98872.61
2023-03-25T05:45:22.424Z,98881.94
2023-03-25T05:47:54.949Z,98887.98
2023-03-25T05:50:29.006Z,98889.63
2023-03-25T05:53:01.389Z,98889.55
2023-03-25T05:55:33.727Z,98888.94
2023-03-25T05:58:11.213Z,98884.18
2023-03-25T06:00:44.160Z,98881.20
2023-03-25T06:03:18.584Z,98883.52
2023-03-25T06:05:51.336Z,98887.95
2023-03-25T06:08:26.503Z,98894.45
2023-03-25T06:11:00.855Z,98900.46
2023-03-25T06:13:34.091Z,98898.23
2023-03-25T06:16:08.907Z,98902.52
2023-03-25T06:18:41.226Z,98906.92
2023-03-25T06:21:14.076Z,98908.70
2023-03-25T06:23:46.436Z,98911.19
2023-03-25T06:26:19.110Z,98906.00
2023-03-25T06:28:51.741Z,98906.59
2023-03-25T06:31:27.016Z,98906.67
2023-03-25T06:34:00.221Z,98905.50
2023-03-25T06:36:34.894Z,98905.44
2023-03-25T06:39:07.395Z,98902.41
2023-03-25T06:41:39.840Z,98904.48
2023-03-25T06:44:24.473Z,98900.60
2023-03-25T06:47:15.953Z,98904.48
2023-03-25T06:49:49.836Z,98906.31
2023-03-25T06:52:22.178Z,98909.41
2023-03-25T06:54:54.465Z,98910.58
2023-03-25T06:57:26.800Z,98908.94
2023-03-25T06:59:59.045Z,98910.66
2023-03-25T07:02:31.417Z,98909.08
2023-03-25T07:05:03.972Z,98909.52
2023-03-25T07:07:36.398Z,98912.02
2023-03-25T07:10:10.128Z,98911.19
2023-03-25T07:12:42.454Z,98919.65
2023-03-25T07:15:14.865Z,98921.03
2023-03-25T07:17:51.382Z,98921.93
2023-03-25T07:20:23.760Z,98921.19
2023-03-25T07:22:58.040Z,98921.67
2023-03-25T07:25:30.436Z,98916.46
2023-03-25T07:28:02.905Z,98918.45
2023-03-25T07:30:35.944Z,98924.83
2023-03-25T07:33:08.264Z,98921.49
2023-03-25T07:35:40.590Z,98915.86
2023-03-25T07:38:13.041Z,98914.27
2023-03-25T07:40:49.912Z,98914.27
2023-03-25T07:43:22.861Z,98917.89
2023-03-25T07:46:01.163Z,98918.89
2023-03-25T07:48:36.861Z,98914.36
2023-03-25T07:51:10.160Z,98909.41
2023-03-25T07:53:44.827Z,98904.20
2023-03-25T07:56:17.298Z,98900.95
2023-03-25T07:58:49.825Z,98895.18
2023-03-25T08:01:22.188Z,98892.86
2023-03-25T08:03:54.653Z,98896.75
2023-03-25T08:06:27.371Z,98894.14
2023-03-25T08:08:59.722Z,98895.31
2023-03-25T08:11:33.905Z,98892.42
2023-03-25T08:14:06.821Z,98887.60
2023-03-25T08:16:39.223Z,98884.71
2023-03-25T08:19:11.780Z,98881.33
2023-03-25T08:21:44.066Z,98878.71
2023-03-25T08:24:16.364Z,98878.30
2023-03-25T08:26:49.418Z,98877.20
2023-03-25T08:29:21.710Z,98884.29
2023-03-25T08:31:54.062Z,98881.16
2023-03-25T08:34:28.562Z,98874.42
2023-03-25T08:37:02.479Z,98873.66
2023-03-25T08:39:40.114Z,98870.38
2023-03-25T08:42:13.391Z,98872.83
2023-03-25T08:44:45.754Z,98863.16
2023-03-25T08:47:18.080Z,98868.81
2023-03-25T08:49:50.474Z,98870.67
2023-03-25T08:52:23.024Z,98877.05
2023-03-25T08:54:55.523Z,98878.08
2023-03-25T08:57:27.804Z,98877.20
2023-03-25T09:00:00.517Z,98871.39
2023-03-25T09:02:32.843Z,98875.19
2023-03-25T09:05:05.768Z,98882.00
2023-03-25T09:07:38.110Z,98879.54
2023-03-25T09:10:13.113Z,98881.38
2023-03-25T09:12:46.008Z,98881.73
2023-03-25T09:15:18.205Z,98875.48
2023-03-25T09:17:50.593Z,98875.06
2023-03-25T09:20:23.228Z,98870.12
2023-03-25T09:22:55.454Z,98873.48
2023-03-25T09:25:28.454Z,98867.08
2023-03-25T09:28:00.832Z,98869.86
2023-03-25T09:30:33.175Z,98863.01
2023-03-25T09:33:05.945Z,98854.46
2023-03-25T09:35:38.144Z,98847.48
2023-03-25T09:38:10.558Z,98854.33
2023-03-25T09:40:45.517Z,98846.17
2023-03-25T09:43:31.067Z,98857.11
2023-03-25T09:46:04.457Z,98858.90
2023-03-25T09:48:41.245Z,98861.72
2023-03-25T09:51:20.107Z,98864.46
2023-03-25T09:53:57.308Z,98861.66
2023-03-25T09:56:32.420Z,98847.73
2023-03-25T09:59:08.686Z,98849.25
2023-03-25T10:01:48.641Z,98851.42
2023-03-25T10:04:44.613Z,98849.11
2023-03-25T10:07:33.881Z,98849.52
2023-03-25T10:10:15.332Z,98852.23
2023-03-25T10:12:53.450Z,98851.88
2023-03-25T10:15:33.914Z,98849.34
2023-03-25T10:18:20.439Z,98846.90
2023-03-25T10:21:01.724Z,98849.06
2023-03-25T10:23:39.163Z,98846.65
2023-03-25T10:26:18.733Z,98847.06
2023-03-25T10:28:55.762Z,98848.73
2023-03-25T10:31:32.524Z,98835.34
2023-03-25T10:34:12.394Z,98840.08
2023-03-25T10:36:50.680Z,98837.74
2023-03-25T10:39:23.845Z,98840.11
2023-03-25T10:42:00.446Z,98834.29
2023-03-25T10:44:32.936Z,98830.91
2023-03-25T10:47:08.759Z,98837.83
2023-03-25T10:49:44.055Z,98833.65
2023-03-25T10:52:16.673Z,98834.41
2023-03-25T10:54:52.882Z,98834.71
2023-03-25T10:57:28.212Z,98835.68
2023-03-25T11:00:12.841Z,98831.94
2023-03-25T11:02:46.198Z,98833.70
2023-03-25T11:05:21.829Z,98833.34
2023-03-25T11:07:58.820Z,98822.00
2023-03-25T11:10:34.352Z,98821.10
2023-03-25T11:13:13.210Z,98813.67
2023-03-25T11:15:45.612Z,98812.73
2023-03-25T11:18:22.256Z,98815.58
2023-03-25T11:20:57.853Z,98813.46
2023-03-25T11:23:32.666Z,98814.88
2023-03-25T11:26:06.843Z,98811.66
2023-03-25T11:28:43.174Z,98802.92
2023-03-25T11:31:18.739Z,98794.84
2023-03-25T11:34:08.175Z,98794.98
2023-03-25T11:36:42.293Z,98789.71
2023-03-25T11:39:20.523Z,98792.02
2023-03-25T11:41:53.957Z,98790.35
2023-03-25T11:44:30.244Z,98786.96
2023-03-25T11:47:06.231Z,98781.50
2023-03-25T11:49:41.382Z,98776.59
2023-03-25T11:52:19.835Z,98776.73
2023-03-25T11:54:54.539Z,98772.66
2023-03-25T11:57:32.750Z,98766.75
2023-03-25T12:00:12.980Z,98758.66
2023-03-25T12:02:45.385Z,98758.27
2023-03-25T12:05:18.632Z,98755.27
2023-03-25T12:07:52.571Z,98749.30
2023-03-25T12:10:37.165Z,98748.98
2023-03-25T12:13:15.911Z,98747.83
2023-03-25T12:16:00.547Z,98744.51
2023-03-25T12:18:49.509Z,98744.20
2023-03-25T12:21:38.598Z,98738.64
2023-03-25T12:24:26.978Z,98739.15
2023-03-25T12:27:21.293Z,98738.70
2023-03-25T12:30:00.501Z,98735.72
2023-03-25T12:32:39.742Z,98734.94
2023-03-25T12:35:27.238Z,98731.21
2023-03-25T12:38:22.634Z,98734.39
2023-03-25T12:41:09.455Z,98739.40
2023-03-25T12:43:52.491Z,98757.58
2023-03-25T12:46:39.166Z,98775.02
2023-03-25T12:49:29.252Z,98758.48
2023-03-25T12:52:07.203Z,98755.84
2023-03-25T12:54:55.824Z,98752.00
2023-03-25T12:57:39.686Z,98746.44
2023-03-25T13:00:27.745Z,98738.02
2023-03-25T13:03:24.326Z,98737.41
2023-03-25T13:06:01.416Z,98737.56
2023-03-25T13:08:41.716Z,98735.30
2023-03-25T13:11:19.721Z,98731.25
2023-03-25T13:13:54.851Z,98731.71
2023-03-25T13:16:29.568Z,98728.79
2023-03-25T13:19:03.482Z,98721.94
2023-03-25T13:21:41.171Z,98724.03
2023-03-25T13:24:18.886Z,98719.50
2023-03-25T13:26:53.664Z,98717.75
2023-03-25T13:29:31.802Z,98716.71
2023-03-25T13:32:10.048Z,98714.59
2023-03-25T13:34:51.386Z,98713.46
2023-03-25T13:37:29.351Z,98712.02
2023-03-25T13:40:18.612Z,98712.88
2023-03-25T13:42:55.673Z,98710.88
2023-03-25T13:45:30.827Z,98707.52
2023-03-25T13:48:11.940Z,98702.08
2023-03-25T13:50:44.485Z,98703.63
2023-03-25T13:53:23.025Z,98706.23
2023-03-25T13:56:02.528Z,98698.64
2023-03-25T13:58:53.066Z,98697.83
2023-03-25T14:01:39.361Z,98693.19
2023-03-25T14:04:33.001Z,98688.92
2023-03-25T14:07:43.958Z,98688.80
2023-03-25T14:10:48.631Z,98689.10
2023-03-25T14:13:27.579Z,98686.42
2023-03-25T14:16:05.214Z,98684.33
2023-03-25T14:18:44.556Z,98683.84
2023-03-25T14:21:31.268Z,98683.81
2023-03-25T14:24:06.955Z,98689.27
2023-03-25T14:26:45.485Z,98699.36
2023-03-25T14:29:33.570Z,98707.14
2023-03-25T14:32:32.392Z,98710.33
2023-03-25T14:35:39.339Z,98713.30
2023-03-25T14:38:48.306Z,98710.66
2023-03-25T14:41:58.050Z,98704.48
2023-03-25T14:44:33.011Z,98707.36
2023-03-25T14:47:35.468Z,98711.15
2023-03-25T14:50:30.396Z,98706.13
2023-03-25T14:53:06.343Z,98704.36
2023-03-25T14:55:46.311Z,98701.71
2023-03-25T14:58:24.397Z,98706.08
2023-03-25T15:01:00.614Z,98703.44
2023-03-25T15:03:37.034Z,98701.08
2023-03-25T15:06:16.134Z,98695.23
2023-03-25T15:08:55.584Z,98700.08
2023-03-25T15:11:37.434Z,98702.50
2023-03-25T15:14:14.656Z,98710.30
2023-03-25T15:17:02.032Z,98711.95
2023-03-25T15:20:12.120Z,98721.66
2023-03-25T15:22:44.472Z,98718.00
2023-03-25T15:25:21.816Z,98716.63
2023-03-25T15:28:07.863Z,98716.71
2023-03-25T15:31:11.614Z,98713.30
2023-03-25T15:34:03.953Z,98711.96
2023-03-25T15:36:47.688Z,98719.34
2023-03-25T15:39:32.976Z,98728.27
2023-03-25T15:42:30.036Z,98727.69
2023-03-25T15:45:24.187Z,98728.33
2023-03-25T15:48:32.184Z,98729.02
2023-03-25T15:51:14.043Z,98728.02
2023-03-25T15:54:15.773Z,98727.27
2023-03-25T15:56:50.385Z,98728.60
2023-03-25T15:59:34.973Z,98728.32
2023-03-25T16:02:13.491Z,98729.06
2023-03-25T16:04:48.561Z,98725.80
2023-03-25T16:07:24.920Z,98728.17
2023-03-25T16:09:57.396Z,98730.11
2023-03-25T16:12:32.034Z,98727.70
2023-03-25T16:15:08.553Z,98723.86
2023-03-25T16:17:40.995Z,98725.46
2023-03-25T16:20:19.312Z,98729.98
2023-03-25T16:22:54.794Z,98726.77
2023-03-25T16:25:35.599Z,98722.29
2023-03-25T16:28:14.651Z,98720.42
2023-03-25T16:30:50.264Z,98726.10
2023-03-25T16:33:27.245Z,98737.34
2023-03-25T16:36:01.401Z,98735.06
2023-03-25T16:38:34.566Z,98735.59
2023-03-25T16:41:13.000Z,98736.16
2023-03-25T16:43:45.813Z,98740.66
2023-03-25T16:46:23.646Z,98745.91
2023-03-25T16:48:58.447Z,98748.21
2023-03-25T16:51:36.221Z,98745.11
2023-03-25T16:54:13.294Z,98747.61
2023-03-25T16:56:46.100Z,98742.48
2023-03-25T16:59:24.036Z,98748.27
2023-03-25T17:01:58.251Z,98751.14
2023-03-25T17:04:42.129Z,98749.23
2023-03-25T17:07:20.941Z,98754.98
2023-03-25T17:09:56.664Z,98760.17
2023-03-25T17:12:30.802Z,98767.32
2023-03-25T17:15:09.387Z,98765.76
2023-03-25T17:17:47.435Z,98767.34
2023-03-25T17:20:23.291Z,98764.11
2023-03-25T17:23:08.024Z,98772.33
2023-03-25T17:25:53.732Z,98769.23
2023-03-25T17:28:33.772Z,98771.41
2023-03-25T17:31:22.016Z,98767.28
2023-03-25T17:33:59.835Z,98765.85
2023-03-25T17:36:34.646Z,98766.69
2023-03-25T17:39:06.267Z,98774.44
2023-03-25T17:41:41.338Z,98767.06
2023-03-25T17:44:18.337Z,98763.01
2023-03-25T17:46:50.753Z,98754.30
2023-03-25T17:52:10.020Z,98745.69
2023-03-25T17:54:42.125Z,98751.10
2023-03-25T17:57:17.733Z,98756.73
2023-03-25T17:59:51.549Z,98753.66
2023-03-25T18:02:24.849Z,98759.06
2023-03-25T18:04:57.129Z,98762.68
2023-03-25T18:07:29.322Z,98758.41
2023-03-25T18:10:01.680Z,98762.02
2023-03-25T18:12:33.888Z,98761.30
2023-03-25T18:15:06.876Z,98761.71
2023-03-25T18:17:39.126Z,98762.72
2023-03-25T18:20:18.041Z,98767.51
2023-03-25T18:25:24.329Z,98771.96
2023-03-25T18:27:58.321Z,98771.13
2023-03-25T18:30:34.728Z,98774.71
2023-03-25T18:33:07.129Z,98773.91
2023-03-25T18:35:39.573Z,98770.03
2023-03-25T18:38:18.923Z,98767.85
2023-03-25T18:40:52.252Z,98767.91
2023-03-25T18:43:25.001Z,98765.64
2023-03-25T18:45:57.244Z,98761.54
2023-03-25T18:48:29.404Z,98757.48
2023-03-25T18:51:02.480Z,98760.42
2023-03-25T18:53:34.724Z,98755.54
2023-03-25T18:56:08.515Z,98755.50
2023-03-25T18:58:40.916Z,98751.59
2023-03-25T19:01:18.784Z,98749.02
2023-03-25T19:03:51.653Z,98751.43
2023-03-25T19:06:23.731Z,98748.79
2023-03-25T19:08:57.204Z,98747.11
2023-03-25T19:11:30.679Z,98746.16
2023-03-25T19:14:02.832Z,98746.66
2023-03-25T19:16:35.084Z,98746.37
2023-03-25T19:19:07.303Z,98745.73
2023-03-25T19:21:39.499Z,98743.63
2023-03-25T19:24:11.882Z,98749.10
2023-03-25T19:26:44.221Z,98747.95
2023-03-25T19:29:16.523Z,98745.95
2023-03-25T19:31:48.698Z,98745.25
2023-03-25T19:34:22.251Z,98740.92
2023-03-25T19:37:08.047Z,98737.00
2023-03-25T19:39:40.291Z,98739.64
2023-03-25T19:42:12.552Z,98737.78
2023-03-25T19:44:46.118Z,98736.75
2023-03-25T19:47:19.338Z,98738.27
2023-03-25T19:49:51.338Z,98738.70
2023-03-25T19:52:23.693Z,98734.47
2023-03-25T19:54:55.822Z,98736.01
2023-03-25T19:57:28.092Z,98735.46
2023-03-25T20:00:01.486Z,98731.95
2023-03-25T20:02:33.760Z,98733.20
2023-03-25T20:05:06.453Z,98731.30
2023-03-25T20:07:39.027Z,98728.52
2023-03-25T20:10:20.049Z,98723.98
2023-03-25T20:12:53.094Z,98726.27
2023-03-25T20:15:27.220Z,98724.48
2023-03-25T20:17:59.603Z,98728.27
2023-03-25T20:20:31.852Z,98729.27
2023-03-25T20:23:04.167Z,98728.56
2023-03-25T20:25:36.599Z,98731.30
2023-03-25T20:28:08.861Z,98730.44
2023-03-25T20:30:41.674Z,98734.03
2023-03-25T20:33:13.877Z,98737.25
2023-03-25T20:35:46.116Z,98743.30
2023-03-25T20:38:18.896Z,98741.64
2023-03-25T20:40:54.393Z,98743.16
2023-03-25T20:43:26.569Z,98743.74
2023-03-25T20:45:58.998Z,98742.26
2023-03-25T20:48:32.332Z,98734.90
2023-03-25T20:51:07.427Z,98732.70
2023-03-25T20:53:41.861Z,98738.61
2023-03-25T20:56:14.110Z,98741.39
2023-03-25T20:58:46.835Z,98738.13
2023-03-25T21:01:21.404Z,98741.80
2023-03-25T21:03:53.978Z,98744.36
2023-03-25T21:06:28.400Z,98748.27
2023-03-25T21:09:07.023Z,98747.30
2023-03-25T21:11:40.499Z,98747.59
2023-03-25T21:14:13.500Z,98744.53
2023-03-25T21:16:46.413Z,98742.92
2023-03-25T21:19:19.680Z,98742.80
2023-03-25T21:21:51.836Z,98747.30
2023-03-25T21:24:24.255Z,98744.73
2023-03-25T21:26:56.450Z,98743.92
2023-03-25T21:29:29.020Z,98742.35
2023-03-25T21:32:01.307Z,98742.80
2023-03-25T21:34:33.476Z,98737.92
2023-03-25T21:37:06.403Z,98740.03
2023-03-25T21:39:38.670Z,98738.08
2023-03-25T21:42:11.389Z,98742.66
2023-03-25T21:44:44.021Z,98749.08
2023-03-25T21:47:17.796Z,98751.89
2023-03-25T21:49:50.499Z,98755.91
2023-03-25T21:52:26.392Z,98750.04
2023-03-25T21:54:59.392Z,98749.00
2023-03-25T21:57:31.977Z,98747.17
2023-03-25T22:00:06.008Z,98745.24
2023-03-25T22:02:45.621Z,98750.23
2023-03-25T22:05:18.952Z,98750.98
2023-03-25T22:07:51.130Z,98753.42
2023-03-25T22:10:23.386Z,98752.05
2023-03-25T22:12:55.776Z,98756.24
2023-03-25T22:15:28.087Z,98755.30
2023-03-25T22:18:00.697Z,98756.95
2023-03-25T22:20:33.180Z,98758.34
2023-03-25T22:23:05.999Z,98752.67
2023-03-25T22:25:38.109Z,98748.59
2023-03-25T22:28:10.685Z,98751.61
2023-03-25T22:30:43.309Z,98749.05
2023-03-25T22:33:17.065Z,98748.59
2023-03-25T22:35:51.224Z,98740.89
2023-03-25T22:38:23.499Z,98734.32
2023-03-25T22:40:55.684Z,98731.92
2023-03-25T22:43:27.805Z,98739.34
2023-03-25T22:46:02.583Z,98735.52
2023-03-25T22:48:39.286Z,98734.55
2023-03-25T22:51:13.601Z,98731.90
2023-03-25T22:53:46.562Z,98731.91
2023-03-25T22:56:18.686Z,98726.87
2023-03-25T22:58:53.091Z,98730.67
2023-03-25T23:01:26.953Z,98727.48
2023-03-25T23:03:59.848Z,98725.88
2023-03-25T23:06:33.447Z,98725.46
2023-03-25T23:09:08.547Z,98728.23
2023-03-25T23:11:41.154Z,98727.62
2023-03-25T23:14:14.205Z,98725.01
2023-03-25T23:16:46.418Z,98728.89
2023-03-25T23:19:18.558Z,98723.48
2023-03-25T23:21:50.696Z,98720.65
2023-03-25T23:24:22.897Z,98717.60
2023-03-25T23:26:55.904Z,98718.80
2023-03-25T23:29:28.094Z,98718.30
2023-03-25T23:32:00.171Z,98718.56
2023-03-25T23:34:33.981Z,98716.37
2023-03-25T23:37:07.710Z,98716.03
2023-03-25T23:39:42.115Z,98713.64
2023-03-25T23:42:14.328Z,98711.77
2023-03-25T23:44:46.617Z,98710.13
2023-03-25T23:47:18.805Z,98712.81
2023-03-25T23:49:50.824Z,98713.51
2023-03-25T23:52:22.904Z,98712.51
2023-03-25T23:54:55.138Z,98709.91
2023-03-25T23:57:27.387Z,98707.02
